createdAt,value
2024-04-25T00:00:26.792Z,983.95
2024-04-25T00:01:26.779Z,983.95
2024-04-25T00:02:26.858Z,983.94
2024-04-25T00:03:26.907Z,983.95
2024-04-25T00:04:26.813Z,983.95
2024-04-25T00:05:26.781Z,983.95
2024-04-25T00:06:26.735Z,983.96
2024-04-25T00:07:26.739Z,983.96
2024-04-25T00:08:26.801Z,983.98
2024-04-25T00:09:26.735Z,983.98
2024-04-25T00:10:26.681Z,983.99
2024-04-25T00:11:26.802Z,984.00
2024-04-25T00:12:26.668Z,984.00
2024-04-25T00:13:26.662Z,984.01
2024-04-25T00:14:26.736Z,984.00
2024-04-25T00:15:26.637Z,984.00
2024-04-25T00:16:26.676Z,984.00
2024-04-25T00:17:26.681Z,984.01
2024-04-25T00:18:26.749Z,984.01
2024-04-25T00:19:26.596Z,984.00
2024-04-25T00:20:26.650Z,983.99
2024-04-25T00:21:26.611Z,984.01
2024-04-25T00:22:26.572Z,984.00
2024-04-25T00:23:26.568Z,984.00
2024-04-25T00:24:26.547Z,984.01
2024-04-25T00:25:26.561Z,984.00
2024-04-25T00:26:26.562Z,984.01
2024-04-25T00:27:26.535Z,984.00
2024-04-25T00:28:26.498Z,983.99
2024-04-25T00:29:26.532Z,983.99
2024-04-25T00:30:26.515Z,983.97
2024-04-25T00:31:26.477Z,983.97
2024-04-25T00:32:26.531Z,983.98
2024-04-25T00:33:26.506Z,983.97
2024-04-25T00:34:26.439Z,983.96
2024-04-25T00:35:26.491Z,983.96
2024-04-25T00:36:26.424Z,983.97
2024-04-25T00:37:26.411Z,983.97
2024-04-25T00:38:26.434Z,983.96
2024-04-25T00:39:26.417Z,983.96
2024-04-25T00:40:26.408Z,983.95
2024-04-25T00:41:26.389Z,983.94
2024-04-25T00:42:26.357Z,983.94
2024-04-25T00:43:26.346Z,983.93
2024-04-25T00:44:26.855Z,983.94
2024-04-25T00:45:26.352Z,983.93
2024-04-25T00:46:26.313Z,983.94
2024-04-25T00:47:26.387Z,983.95
2024-04-25T00:48:26.370Z,983.94
2024-04-25T00:49:26.319Z,983.94
2024-04-25T00:50:26.307Z,983.93
2024-04-25T00:51:26.274Z,983.92
2024-04-25T00:52:26.267Z,983.91
2024-04-25T00:53:26.387Z,983.92
2024-04-25T00:54:26.248Z,983.93
2024-04-25T00:55:26.235Z,983.91
2024-04-25T00:56:26.243Z,983.91
2024-04-25T00:57:26.228Z,983.92
2024-04-25T00:58:26.217Z,983.92
2024-04-25T00:59:26.224Z,983.91
2024-04-25T01:00:26.209Z,983.90
2024-04-25T01:01:26.170Z,983.88
2024-04-25T01:02:26.200Z,983.86
2024-04-25T01:03:26.204Z,983.86
2024-04-25T01:04:26.157Z,983.84
2024-04-25T01:05:26.156Z,983.85
2024-04-25T01:06:26.108Z,983.84
2024-04-25T01:07:26.127Z,983.84
2024-04-25T01:08:26.122Z,983.83
2024-04-25T01:09:26.083Z,983.83
2024-04-25T01:10:26.069Z,983.83
2024-04-25T01:11:26.204Z,983.83
2024-04-25T01:12:26.062Z,983.84
2024-04-25T01:13:26.037Z,983.86
2024-04-25T01:14:26.094Z,983.88
2024-04-25T01:15:26.028Z,983.89
2024-04-25T01:16:26.081Z,983.89
2024-04-25T01:17:26.067Z,983.89
2024-04-25T01:18:26.031Z,983.91
2024-04-25T01:19:25.990Z,983.90
2024-04-25T01:20:25.998Z,983.91
2024-04-25T01:21:26.010Z,983.91
2024-04-25T01:22:25.965Z,983.91
2024-04-25T01:23:25.962Z,983.93
2024-04-25T01:24:25.927Z,983.93
2024-04-25T01:25:25.920Z,983.91
2024-04-25T01:26:25.934Z,983.89
2024-04-25T01:27:25.903Z,983.90
2024-04-25T01:28:25.887Z,983.90
2024-04-25T01:29:26.052Z,983.89
2024-04-25T01:30:25.859Z,983.89
2024-04-25T01:31:25.881Z,983.91
2024-04-25T01:32:25.998Z,983.91
2024-04-25T01:33:25.898Z,983.90
2024-04-25T01:34:25.832Z,983.90
2024-04-25T01:35:25.886Z,983.89
2024-04-25T01:36:25.824Z,983.90
2024-04-25T01:37:25.808Z,983.88
2024-04-25T01:38:25.833Z,983.87
2024-04-25T01:39:25.772Z,983.88
2024-04-25T01:40:25.784Z,983.87
2024-04-25T01:41:25.782Z,983.85
2024-04-25T01:42:25.746Z,983.85
2024-04-25T01:43:25.759Z,983.86
2024-04-25T01:44:25.746Z,983.86
2024-04-25T01:45:25.738Z,983.85
2024-04-25T01:46:25.724Z,983.85
2024-04-25T01:47:25.814Z,983.84
2024-04-25T01:48:25.856Z,983.81
2024-04-25T01:49:25.688Z,983.79
2024-04-25T01:50:25.748Z,983.79
2024-04-25T01:51:25.696Z,983.78
2024-04-25T01:52:25.648Z,983.78
2024-04-25T01:53:25.657Z,983.77
2024-04-25T01:54:26.145Z,983.77
2024-04-25T01:55:25.622Z,983.77
2024-04-25T01:56:25.680Z,983.77
2024-04-25T01:57:25.609Z,983.77
2024-04-25T01:58:25.672Z,983.79
2024-04-25T01:59:25.664Z,983.77
2024-04-25T02:00:25.564Z,983.78
2024-04-25T02:01:25.553Z,983.77
2024-04-25T02:02:25.625Z,983.77
2024-04-25T02:03:25.582Z,983.75
2024-04-25T02:04:25.550Z,983.75
2024-04-25T02:05:25.553Z,983.74
2024-04-25T02:06:25.514Z,983.74
2024-04-25T02:07:25.478Z,983.73
2024-04-25T02:08:25.530Z,983.73
2024-04-25T02:09:25.458Z,983.73
2024-04-25T02:10:25.480Z,983.73
2024-04-25T02:11:25.597Z,983.73
2024-04-25T02:12:25.451Z,983.76
2024-04-25T02:13:25.452Z,983.77
2024-04-25T02:14:25.462Z,983.77
2024-04-25T02:15:25.398Z,983.78
2024-04-25T02:16:25.413Z,983.78
2024-04-25T02:17:25.498Z,983.78
2024-04-25T02:18:25.492Z,983.78
2024-04-25T02:19:25.381Z,983.80
2024-04-25T02:20:25.405Z,983.82
2024-04-25T02:21:25.366Z,983.83
2024-04-25T02:22:25.434Z,983.83
2024-04-25T02:23:25.364Z,983.80
2024-04-25T02:24:25.333Z,983.80
2024-04-25T02:25:25.309Z,983.79
2024-04-25T02:26:25.340Z,983.79
2024-04-25T02:27:25.305Z,983.79
2024-04-25T02:28:25.279Z,983.78
2024-04-25T02:29:25.322Z,983.78
2024-04-25T02:30:25.268Z,983.78
2024-04-25T02:31:25.254Z,983.79
2024-04-25T02:32:25.369Z,983.80
2024-04-25T02:33:25.294Z,983.82
2024-04-25T02:34:25.223Z,983.83
2024-04-25T02:35:25.314Z,983.83
2024-04-25T02:36:25.379Z,983.83
2024-04-25T02:37:25.188Z,983.83
2024-04-25T02:38:25.252Z,983.82
2024-04-25T02:39:25.164Z,983.82
2024-04-25T02:40:25.158Z,983.82
2024-04-25T02:41:25.192Z,983.81
2024-04-25T02:42:25.142Z,983.80
2024-04-25T02:43:25.123Z,983.81
2024-04-25T02:44:25.163Z,983.81
2024-04-25T02:45:25.124Z,983.81
2024-04-25T02:46:25.112Z,983.81
2024-04-25T02:47:25.152Z,983.82
2024-04-25T02:48:25.211Z,983.82
2024-04-25T02:49:25.066Z,983.82
2024-04-25T02:50:25.102Z,983.82
2024-04-25T02:51:25.057Z,983.83
2024-04-25T02:52:25.038Z,983.83
2024-04-25T02:53:25.035Z,983.83
2024-04-25T02:54:25.018Z,983.82
2024-04-25T02:55:25.022Z,983.82
2024-04-25T02:56:25.026Z,983.83
2024-04-25T02:57:24.986Z,983.82
2024-04-25T02:58:24.973Z,983.83
2024-04-25T02:59:24.983Z,983.82
2024-04-25T03:00:24.977Z,983.81
2024-04-25T03:01:24.961Z,983.80
2024-04-25T03:02:25.020Z,983.82
2024-04-25T03:03:24.990Z,983.81
2024-04-25T03:04:24.934Z,983.80
2024-04-25T03:05:24.929Z,983.78
2024-04-25T03:06:24.924Z,983.77
2024-04-25T03:07:24.888Z,983.77
2024-04-25T03:08:24.917Z,983.76
2024-04-25T03:09:24.882Z,983.76
2024-04-25T03:10:24.855Z,983.77
2024-04-25T03:11:24.847Z,983.78
2024-04-25T03:12:24.865Z,983.78
2024-04-25T03:13:24.847Z,983.79
2024-04-25T03:14:24.902Z,983.81
2024-04-25T03:15:24.803Z,983.79
2024-04-25T03:16:24.795Z,983.79
2024-04-25T03:17:24.815Z,983.79
2024-04-25T03:18:24.961Z,983.81
2024-04-25T03:19:24.752Z,983.81
2024-04-25T03:20:24.774Z,983.84
2024-04-25T03:21:24.755Z,983.84
2024-04-25T03:22:24.737Z,983.83
2024-04-25T03:23:24.826Z,983.86
2024-04-25T03:24:24.704Z,983.86
2024-04-25T03:25:24.698Z,983.86
2024-04-25T03:26:24.754Z,983.87
2024-04-25T03:27:24.691Z,983.88
2024-04-25T03:28:24.683Z,983.88
2024-04-25T03:29:24.673Z,983.90
2024-04-25T03:30:24.653Z,983.90
2024-04-25T03:31:24.633Z,983.91
2024-04-25T03:32:25.434Z,983.92
2024-04-25T03:33:24.751Z,983.91
2024-04-25T03:34:24.604Z,983.91
2024-04-25T03:35:24.563Z,983.91
2024-04-25T03:36:24.579Z,983.94
2024-04-25T03:37:24.590Z,983.93
2024-04-25T03:38:24.634Z,983.96
2024-04-25T03:39:24.556Z,983.96
2024-04-25T03:40:24.555Z,983.98
2024-04-25T03:41:24.598Z,983.99
2024-04-25T03:42:24.538Z,984.01
2024-04-25T03:43:24.504Z,984.02
2024-04-25T03:44:24.488Z,984.03
2024-04-25T03:45:24.432Z,984.02
2024-04-25T03:46:24.450Z,984.01
2024-04-25T03:47:24.507Z,983.99
2024-04-25T03:48:24.660Z,983.98
2024-04-25T03:49:24.444Z,984.00
2024-04-25T03:50:24.490Z,984.01
2024-04-25T03:51:24.448Z,984.02
2024-04-25T03:52:24.378Z,984.03
2024-04-25T03:53:24.377Z,984.07
2024-04-25T03:54:24.404Z,984.05
2024-04-25T03:55:24.365Z,984.05
2024-04-25T03:56:24.415Z,984.06
2024-04-25T03:57:24.378Z,984.09
2024-04-25T03:58:24.312Z,984.10
2024-04-25T03:59:24.333Z,984.10
2024-04-25T04:00:24.350Z,984.11
2024-04-25T04:01:24.358Z,984.13
2024-04-25T04:02:24.371Z,984.16
2024-04-25T04:03:24.325Z,984.17
2024-04-25T04:04:24.245Z,984.19
2024-04-25T04:05:24.296Z,984.20
2024-04-25T04:06:24.215Z,984.21
2024-04-25T04:07:24.220Z,984.22
2024-04-25T04:08:24.237Z,984.20
2024-04-25T04:09:24.208Z,984.19
2024-04-25T04:10:24.237Z,984.17
2024-04-25T04:11:24.251Z,984.14
2024-04-25T04:12:24.183Z,984.14
2024-04-25T04:13:24.142Z,984.11
2024-04-25T04:14:24.176Z,984.10
2024-04-25T04:15:24.130Z,984.11
2024-04-25T04:16:24.237Z,984.12
2024-04-25T04:17:24.145Z,984.12
2024-04-25T04:18:24.132Z,984.12
2024-04-25T04:19:24.113Z,984.11
2024-04-25T04:20:24.094Z,984.10
2024-04-25T04:21:24.074Z,984.12
2024-04-25T04:22:24.056Z,984.11
2024-04-25T04:23:24.211Z,984.11
2024-04-25T04:24:24.140Z,984.10
2024-04-25T04:25:24.034Z,984.10
2024-04-25T04:26:24.079Z,984.12
2024-04-25T04:27:24.012Z,984.11
2024-04-25T04:28:24.101Z,984.11
2024-04-25T04:29:24.101Z,984.10
2024-04-25T04:30:23.974Z,984.09
2024-04-25T04:31:23.962Z,984.09
2024-04-25T04:32:23.996Z,984.10
2024-04-25T04:33:24.146Z,984.10
2024-04-25T04:34:23.939Z,984.11
2024-04-25T04:35:23.936Z,984.10
2024-04-25T04:36:23.917Z,984.09
2024-04-25T04:37:23.949Z,984.10
2024-04-25T04:38:23.974Z,984.11
2024-04-25T04:39:23.877Z,984.12
2024-04-25T04:40:23.874Z,984.13
2024-04-25T04:41:23.894Z,984.14
2024-04-25T04:42:23.867Z,984.15
2024-04-25T04:43:23.841Z,984.17
2024-04-25T04:44:23.861Z,984.18
2024-04-25T04:45:23.813Z,984.18
2024-04-25T04:46:23.829Z,984.19
2024-04-25T04:47:23.877Z,984.20
2024-04-25T04:48:31.411Z,984.21
2024-04-25T04:49:23.790Z,984.25
2024-04-25T04:50:23.808Z,984.25
2024-04-25T04:51:23.773Z,984.24
2024-04-25T04:52:23.769Z,984.23
2024-04-25T04:53:23.758Z,984.23
2024-04-25T04:54:23.752Z,984.24
2024-04-25T04:55:23.738Z,984.24
2024-04-25T04:56:23.783Z,984.23
2024-04-25T04:57:23.774Z,984.22
2024-04-25T04:58:23.700Z,984.20
2024-04-25T04:59:23.688Z,984.19
2024-04-25T05:00:23.676Z,984.17
2024-04-25T05:01:23.665Z,984.18
2024-04-25T05:02:23.709Z,984.19
2024-04-25T05:03:23.718Z,984.20
2024-04-25T05:04:23.651Z,984.22
2024-04-25T05:05:23.705Z,984.23
2024-04-25T05:06:23.625Z,984.25
2024-04-25T05:07:23.594Z,984.27
2024-04-25T05:08:23.666Z,984.29
2024-04-25T05:09:23.573Z,984.28
2024-04-25T05:10:23.618Z,984.26
2024-04-25T05:11:23.579Z,984.27
2024-04-25T05:12:24.482Z,984.27
2024-04-25T05:13:23.526Z,984.28
2024-04-25T05:14:23.532Z,984.29
2024-04-25T05:15:23.551Z,984.31
2024-04-25T05:16:23.534Z,984.31
2024-04-25T05:17:23.513Z,984.33
2024-04-25T05:18:23.566Z,984.34
2024-04-25T05:19:23.487Z,984.35
2024-04-25T05:20:23.489Z,984.34
2024-04-25T05:21:23.455Z,984.34
2024-04-25T05:22:23.445Z,984.34
2024-04-25T05:23:23.456Z,984.34
2024-04-25T05:24:23.448Z,984.34
2024-04-25T05:25:23.406Z,984.34
2024-04-25T05:26:23.434Z,984.34
2024-04-25T05:27:23.396Z,984.34
2024-04-25T05:28:23.417Z,984.34
2024-04-25T05:29:23.385Z,984.34
2024-04-25T05:30:23.373Z,984.32
2024-04-25T05:31:23.453Z,984.31
2024-04-25T05:32:23.398Z,984.32
2024-04-25T05:33:23.406Z,984.32
2024-04-25T05:34:23.426Z,984.31
2024-04-25T05:35:23.386Z,984.30
2024-04-25T05:36:23.331Z,984.30
2024-04-25T05:37:23.288Z,984.30
2024-04-25T05:38:23.368Z,984.30
2024-04-25T05:39:23.264Z,984.29
2024-04-25T05:40:23.262Z,984.30
2024-04-25T05:41:23.290Z,984.29
2024-04-25T05:42:23.249Z,984.28
2024-04-25T05:43:23.272Z,984.27
2024-04-25T05:44:23.287Z,984.28
2024-04-25T05:45:23.208Z,984.31
2024-04-25T05:46:23.201Z,984.32
2024-04-25T05:47:23.319Z,984.33
2024-04-25T05:48:23.353Z,984.35
2024-04-25T05:49:23.177Z,984.35
2024-04-25T05:50:23.183Z,984.35
2024-04-25T05:51:23.151Z,984.35
2024-04-25T05:52:23.160Z,984.34
2024-04-25T05:53:23.150Z,984.36
2024-04-25T05:54:23.123Z,984.37
2024-04-25T05:55:23.113Z,984.38
2024-04-25T05:56:23.138Z,984.38
2024-04-25T05:57:23.194Z,984.38
2024-04-25T05:58:23.088Z,984.38
2024-04-25T05:59:23.134Z,984.39
2024-04-25T06:00:23.056Z,984.41
2024-04-25T06:01:23.053Z,984.41
2024-04-25T06:02:23.225Z,984.42
2024-04-25T06:03:23.089Z,984.42
2024-04-25T06:04:23.092Z,984.41
2024-04-25T06:05:23.075Z,984.40
2024-04-25T06:06:23.007Z,984.40
2024-04-25T06:07:22.999Z,984.40
2024-04-25T06:08:22.989Z,984.40
2024-04-25T06:09:22.964Z,984.40
2024-04-25T06:10:23.289Z,984.41
2024-04-25T06:11:23.167Z,984.41
2024-04-25T06:12:23.090Z,984.41
2024-04-25T06:13:22.944Z,984.41
2024-04-25T06:14:22.940Z,984.41
2024-04-25T06:15:22.938Z,984.45
2024-04-25T06:16:22.933Z,984.45
2024-04-25T06:17:22.920Z,984.46
2024-04-25T06:18:23.023Z,984.44
2024-04-25T06:19:22.878Z,984.44
2024-04-25T06:20:22.921Z,984.44
2024-04-25T06:21:22.863Z,984.45
2024-04-25T06:22:22.825Z,984.47
2024-04-25T06:23:22.847Z,984.49
2024-04-25T06:24:22.819Z,984.48
2024-04-25T06:25:22.816Z,984.47
2024-04-25T06:26:22.840Z,984.46
2024-04-25T06:27:22.784Z,984.48
2024-04-25T06:28:22.775Z,984.48
2024-04-25T06:29:22.799Z,984.49
2024-04-25T06:30:22.838Z,984.49
2024-04-25T06:31:22.748Z,984.51
2024-04-25T06:32:22.806Z,984.52
2024-04-25T06:33:22.790Z,984.53
2024-04-25T06:34:22.733Z,984.53
2024-04-25T06:35:22.727Z,984.53
2024-04-25T06:36:22.684Z,984.53
2024-04-25T06:37:22.681Z,984.52
2024-04-25T06:38:22.717Z,984.52
2024-04-25T06:39:23.054Z,984.53
2024-04-25T06:40:22.662Z,984.54
2024-04-25T06:41:22.708Z,984.54
2024-04-25T06:42:22.621Z,984.55
2024-04-25T06:43:22.639Z,984.54
2024-04-25T06:44:29.604Z,984.56
2024-04-25T06:45:22.635Z,984.55
2024-04-25T06:46:22.588Z,984.55
2024-04-25T06:47:22.674Z,984.54
2024-04-25T06:48:22.670Z,984.54
2024-04-25T06:49:22.642Z,984.54
2024-04-25T06:50:22.618Z,984.54
2024-04-25T06:51:22.625Z,984.53
2024-04-25T06:52:22.519Z,984.52
2024-04-25T06:53:22.616Z,984.52
2024-04-25T06:54:22.703Z,984.51
2024-04-25T06:55:22.495Z,984.51
2024-04-25T06:56:22.511Z,984.51
2024-04-25T06:57:22.511Z,984.50
2024-04-25T06:58:22.475Z,984.50
2024-04-25T06:59:22.528Z,984.50
2024-04-25T07:00:22.451Z,984.50
2024-04-25T07:01:22.442Z,984.50
2024-04-25T07:02:22.593Z,984.50
2024-04-25T07:03:22.437Z,984.50
2024-04-25T07:04:22.403Z,984.53
2024-04-25T07:05:22.491Z,984.54
2024-04-25T07:06:22.383Z,984.54
2024-04-25T07:07:22.518Z,984.55
2024-04-25T07:08:22.406Z,984.54
2024-04-25T07:09:22.427Z,984.54
2024-04-25T07:10:22.368Z,984.54
2024-04-25T07:11:22.455Z,984.54
2024-04-25T07:12:22.339Z,984.54
2024-04-25T07:13:22.322Z,984.56
2024-04-25T07:14:22.301Z,984.58
2024-04-25T07:15:22.295Z,984.59
2024-04-25T07:16:22.317Z,984.59
2024-04-25T07:17:22.364Z,984.59
2024-04-25T07:18:22.355Z,984.59
2024-04-25T07:19:22.253Z,984.59
2024-04-25T07:20:22.249Z,984.58
2024-04-25T07:21:22.249Z,984.60
2024-04-25T07:22:22.212Z,984.61
2024-04-25T07:23:22.228Z,984.61
2024-04-25T07:24:22.210Z,984.64
2024-04-25T07:25:22.197Z,984.65
2024-04-25T07:26:22.350Z,984.63
2024-04-25T07:27:22.168Z,984.62
2024-04-25T07:28:22.152Z,984.61
2024-04-25T07:29:22.274Z,984.62
2024-04-25T07:30:22.148Z,984.62
2024-04-25T07:31:22.158Z,984.62
2024-04-25T07:32:22.236Z,984.63
2024-04-25T07:33:22.239Z,984.64
2024-04-25T07:34:22.102Z,984.62
2024-04-25T07:35:22.136Z,984.62
2024-04-25T07:36:22.077Z,984.61
2024-04-25T07:37:22.124Z,984.60
2024-04-25T07:38:22.088Z,984.63
2024-04-25T07:39:22.268Z,984.64
2024-04-25T07:40:22.071Z,984.67
2024-04-25T07:41:22.103Z,984.65
2024-04-25T07:42:22.033Z,984.62
2024-04-25T07:43:22.023Z,984.64
2024-04-25T07:44:22.071Z,984.68
2024-04-25T07:45:22.029Z,984.64
2024-04-25T07:46:21.970Z,984.67
2024-04-25T07:47:21.990Z,984.63
2024-04-25T07:48:22.063Z,984.67
2024-04-25T07:49:22.104Z,984.67
2024-04-25T07:50:22.044Z,984.67
2024-04-25T07:51:21.936Z,984.65
2024-04-25T07:52:21.955Z,984.64
2024-04-25T07:53:21.946Z,984.64
2024-04-25T07:54:21.919Z,984.61
2024-04-25T07:55:21.891Z,984.63
2024-04-25T07:56:21.911Z,984.64
2024-04-25T07:57:21.876Z,984.63
2024-04-25T07:58:21.886Z,984.63
2024-04-25T07:59:21.942Z,984.64
2024-04-25T08:00:21.842Z,984.64
2024-04-25T08:01:21.844Z,984.63
2024-04-25T08:02:21.978Z,984.62
2024-04-25T08:03:22.016Z,984.63
2024-04-25T08:04:21.853Z,984.62
2024-04-25T08:05:21.803Z,984.63
2024-04-25T08:06:21.772Z,984.61
2024-04-25T08:07:21.763Z,984.63
2024-04-25T08:08:25.553Z,984.63
2024-04-25T08:09:21.743Z,984.63
2024-04-25T08:10:21.760Z,984.64
2024-04-25T08:11:21.770Z,984.66
2024-04-25T08:12:21.719Z,984.66
2024-04-25T08:13:21.748Z,984.67
2024-04-25T08:14:21.721Z,984.66
2024-04-25T08:15:21.685Z,984.68
2024-04-25T08:16:21.690Z,984.69
2024-04-25T08:17:21.780Z,984.70
2024-04-25T08:18:21.691Z,984.73
2024-04-25T08:19:21.635Z,984.75
2024-04-25T08:20:23.210Z,984.74
2024-04-25T08:21:21.649Z,984.74
2024-04-25T08:22:21.651Z,984.75
2024-04-25T08:23:21.672Z,984.75
2024-04-25T08:24:21.624Z,984.75
2024-04-25T08:25:21.674Z,984.78
2024-04-25T08:26:21.613Z,984.77
2024-04-25T08:27:21.576Z,984.77
2024-04-25T08:28:21.541Z,984.76
2024-04-25T08:29:21.560Z,984.76
2024-04-25T08:30:21.535Z,984.77
2024-04-25T08:31:21.534Z,984.77
2024-04-25T08:32:24.125Z,984.78
2024-04-25T08:33:21.527Z,984.78
2024-04-25T08:34:21.577Z,984.79
2024-04-25T08:35:21.551Z,984.82
2024-04-25T08:36:21.674Z,984.81
2024-04-25T08:37:21.467Z,984.80
2024-04-25T08:38:21.503Z,984.83
2024-04-25T08:39:21.432Z,984.83
2024-04-25T08:40:21.434Z,984.84
2024-04-25T08:41:21.458Z,984.84
2024-04-25T08:42:21.405Z,984.84
2024-04-25T08:43:21.400Z,984.83
2024-04-25T08:44:21.447Z,984.84
2024-04-25T08:45:21.400Z,984.86
2024-04-25T08:46:21.863Z,984.86
2024-04-25T08:47:21.452Z,984.86
2024-04-25T08:48:21.505Z,984.84
2024-04-25T08:49:21.329Z,984.85
2024-04-25T08:50:21.441Z,984.88
2024-04-25T08:51:21.332Z,984.89
2024-04-25T08:52:21.315Z,984.88
2024-04-25T08:53:21.318Z,984.90
2024-04-25T08:54:21.366Z,984.91
2024-04-25T08:55:21.446Z,984.92
2024-04-25T08:56:21.411Z,984.92
2024-04-25T08:57:21.268Z,984.94
2024-04-25T08:58:21.246Z,984.95
2024-04-25T08:59:21.280Z,984.96
2024-04-25T09:00:21.220Z,984.97
2024-04-25T09:01:21.267Z,984.97
2024-04-25T09:02:21.245Z,984.96
2024-04-25T09:03:21.319Z,984.98
2024-04-25T09:04:21.269Z,984.96
2024-04-25T09:05:21.308Z,984.97
2024-04-25T09:06:21.184Z,984.96
2024-04-25T09:07:21.187Z,984.97
2024-04-25T09:08:21.180Z,984.96
2024-04-25T09:09:21.200Z,984.97
2024-04-25T09:10:21.105Z,984.97
2024-04-25T09:11:21.194Z,984.97
2024-04-25T09:12:21.150Z,984.96
2024-04-25T09:13:21.123Z,984.96
2024-04-25T09:14:21.118Z,984.95
2024-04-25T09:15:21.099Z,984.96
2024-04-25T09:16:21.164Z,984.94
2024-04-25T09:17:21.204Z,984.91
2024-04-25T09:18:21.517Z,984.92
2024-04-25T09:19:21.032Z,984.94
2024-04-25T09:20:21.035Z,984.95
2024-04-25T09:21:21.007Z,984.95
2024-04-25T09:22:21.030Z,984.93
2024-04-25T09:23:21.050Z,984.97
2024-04-25T09:24:20.962Z,984.97
2024-04-25T09:25:20.967Z,984.98
2024-04-25T09:26:20.947Z,984.99
2024-04-25T09:27:20.959Z,984.99
2024-04-25T09:28:20.944Z,984.99
2024-04-25T09:29:20.944Z,984.99
2024-04-25T09:30:20.928Z,985.00
2024-04-25T09:31:20.908Z,985.00
2024-04-25T09:32:21.009Z,985.00
2024-04-25T09:33:21.052Z,984.99
2024-04-25T09:34:21.102Z,984.98
2024-04-25T09:35:20.932Z,984.98
2024-04-25T09:36:20.865Z,984.98
2024-04-25T09:37:20.855Z,984.97
2024-04-25T09:38:20.885Z,984.97
2024-04-25T09:39:20.814Z,984.95
2024-04-25T09:40:20.925Z,984.94
2024-04-25T09:41:20.838Z,984.95
2024-04-25T09:42:20.812Z,984.93
2024-04-25T09:43:20.878Z,984.90
2024-04-25T09:44:20.923Z,984.92
2024-04-25T09:45:20.754Z,984.90
2024-04-25T09:46:21.362Z,984.89
2024-04-25T09:47:20.830Z,984.89
2024-04-25T09:48:20.838Z,984.91
2024-04-25T09:49:20.738Z,984.92
2024-04-25T09:50:20.744Z,984.94
2024-04-25T09:51:20.725Z,984.95
2024-04-25T09:52:20.692Z,984.94
2024-04-25T09:53:20.698Z,984.95
2024-04-25T09:54:20.711Z,984.94
2024-04-25T09:55:20.815Z,984.95
2024-04-25T09:56:20.690Z,984.95
2024-04-25T09:57:20.651Z,984.94
2024-04-25T09:58:20.622Z,984.95
2024-04-25T09:59:20.654Z,984.96
2024-04-25T10:00:20.655Z,984.97
2024-04-25T10:01:20.636Z,984.95
2024-04-25T10:02:20.771Z,984.95
2024-04-25T10:03:20.609Z,984.94
2024-04-25T10:04:20.757Z,984.94
2024-04-25T10:05:20.660Z,984.92
2024-04-25T10:06:20.635Z,984.92
2024-04-25T10:07:20.641Z,984.94
2024-04-25T10:08:20.711Z,984.93
2024-04-25T10:09:20.541Z,984.93
2024-04-25T10:10:20.550Z,984.92
2024-04-25T10:11:20.596Z,984.91
2024-04-25T10:12:20.589Z,984.89
2024-04-25T10:13:20.482Z,984.88
2024-04-25T10:14:20.479Z,984.87
2024-04-25T10:15:20.523Z,984.88
2024-04-25T10:16:20.519Z,984.85
2024-04-25T10:17:20.600Z,984.86
2024-04-25T10:18:20.539Z,984.85
2024-04-25T10:19:20.580Z,984.85
2024-04-25T10:20:20.437Z,984.82
2024-04-25T10:21:20.464Z,984.81
2024-04-25T10:22:20.422Z,984.80
2024-04-25T10:23:20.396Z,984.79
2024-04-25T10:24:20.355Z,984.78
2024-04-25T10:25:20.347Z,984.80
2024-04-25T10:26:20.445Z,984.76
2024-04-25T10:27:20.324Z,984.76
2024-04-25T10:28:20.339Z,984.75
2024-04-25T10:29:20.404Z,984.73
2024-04-25T10:30:20.297Z,984.71
2024-04-25T10:31:20.293Z,984.69
2024-04-25T10:32:20.985Z,984.68
2024-04-25T10:33:20.360Z,984.69
2024-04-25T10:34:20.267Z,984.69
2024-04-25T10:35:20.371Z,984.64
2024-04-25T10:36:20.246Z,984.65
2024-04-25T10:37:20.230Z,984.62
2024-04-25T10:38:20.293Z,984.62
2024-04-25T10:39:20.379Z,984.60
2024-04-25T10:40:20.188Z,984.59
2024-04-25T10:41:20.193Z,984.58
2024-04-25T10:42:20.207Z,984.57
2024-04-25T10:43:20.154Z,984.58
2024-04-25T10:44:20.238Z,984.57
2024-04-25T10:45:20.148Z,984.57
2024-04-25T10:46:20.155Z,984.56
2024-04-25T10:47:20.184Z,984.54
2024-04-25T10:48:20.203Z,984.52
2024-04-25T10:49:20.230Z,984.52
2024-04-25T10:50:20.141Z,984.50
2024-04-25T10:51:20.830Z,984.49
2024-04-25T10:52:20.067Z,984.48
2024-04-25T10:53:20.074Z,984.49
2024-04-25T10:54:20.043Z,984.48
2024-04-25T10:55:20.196Z,984.50
2024-04-25T10:56:20.729Z,984.49
2024-04-25T10:57:20.031Z,984.47
2024-04-25T10:58:20.063Z,984.47
2024-04-25T10:59:20.009Z,984.46
2024-04-25T11:00:20.032Z,984.46
2024-04-25T11:01:19.985Z,984.47
2024-04-25T11:02:20.011Z,984.48
2024-04-25T11:03:20.017Z,984.47
2024-04-25T11:04:20.008Z,984.47
2024-04-25T11:05:19.999Z,984.48
2024-04-25T11:06:19.996Z,984.49
2024-04-25T11:07:20.020Z,984.47
2024-04-25T11:08:19.996Z,984.45
2024-04-25T11:09:19.891Z,984.44
2024-04-25T11:10:19.955Z,984.45
2024-04-25T11:11:19.944Z,984.42
2024-04-25T11:12:19.947Z,984.39
2024-04-25T11:13:19.845Z,984.39
2024-04-25T11:14:19.959Z,984.37
2024-04-25T11:15:19.947Z,984.36
2024-04-25T11:16:19.814Z,984.35
2024-04-25T11:17:19.851Z,984.34
2024-04-25T11:18:25.524Z,984.33
2024-04-25T11:19:26.037Z,984.29
2024-04-25T11:20:19.951Z,984.27
2024-04-25T11:21:19.957Z,984.26
2024-04-25T11:23:20.157Z,984.23
2024-04-25T11:24:19.810Z,984.22
2024-04-25T11:25:19.901Z,984.20
2024-04-25T11:26:19.744Z,984.17
2024-04-25T11:27:19.751Z,984.15
2024-04-25T11:28:19.900Z,984.11
2024-04-25T11:29:19.725Z,984.10
2024-04-25T11:30:19.767Z,984.09
2024-04-25T11:31:19.654Z,984.09
2024-04-25T11:32:19.805Z,984.07
2024-04-25T11:33:19.855Z,984.04
2024-04-25T11:34:19.622Z,984.04
2024-04-25T11:35:19.742Z,984.05
2024-04-25T11:36:19.602Z,984.02
2024-04-25T11:37:19.586Z,984.04
2024-04-25T11:38:19.672Z,984.03
2024-04-25T11:39:19.569Z,984.01
2024-04-25T11:40:19.578Z,983.99
2024-04-25T11:41:19.574Z,983.98
2024-04-25T11:42:19.564Z,983.97
2024-04-25T11:43:19.566Z,983.96
2024-04-25T11:44:19.571Z,983.96
2024-04-25T11:45:19.504Z,983.96
2024-04-25T11:46:19.503Z,983.97
2024-04-25T11:47:19.901Z,983.96
2024-04-25T11:48:19.950Z,983.95
2024-04-25T11:49:19.518Z,983.96
2024-04-25T11:50:19.542Z,983.96
2024-04-25T11:51:19.444Z,983.97
2024-04-25T11:52:19.516Z,983.99
2024-04-25T11:53:19.500Z,984.01
2024-04-25T11:54:19.422Z,984.01
2024-04-25T11:55:19.398Z,984.01
2024-04-25T11:56:19.425Z,984.00
2024-04-25T11:57:19.422Z,984.00
2024-04-25T11:58:19.379Z,984.02
2024-04-25T11:59:19.371Z,984.04
2024-04-25T12:00:19.363Z,984.04
2024-04-25T12:01:19.389Z,984.05
2024-04-25T12:02:19.403Z,984.05
2024-04-25T12:03:19.501Z,984.06
2024-04-25T12:04:19.344Z,984.09
2024-04-25T12:05:19.429Z,984.09
2024-04-25T12:06:19.322Z,984.11
2024-04-25T12:07:19.283Z,984.11
2024-04-25T12:08:19.331Z,984.08
2024-04-25T12:09:19.270Z,984.05
2024-04-25T12:10:19.282Z,984.04
2024-04-25T12:11:19.267Z,984.04
2024-04-25T12:12:19.363Z,984.05
2024-04-25T12:13:19.207Z,984.06
2024-04-25T12:14:19.225Z,984.06
2024-04-25T12:15:21.756Z,984.07
2024-04-25T12:16:19.207Z,984.07
2024-04-25T12:17:19.188Z,984.09
2024-04-25T12:18:19.209Z,984.09
2024-04-25T12:19:19.148Z,984.09
2024-04-25T12:20:19.292Z,984.07
2024-04-25T12:21:19.135Z,984.06
2024-04-25T12:22:19.192Z,984.06
2024-04-25T12:23:19.186Z,984.04
2024-04-25T12:24:19.193Z,984.03
2024-04-25T12:25:19.101Z,984.02
2024-04-25T12:26:19.108Z,984.01
2024-04-25T12:27:19.076Z,984.00
2024-04-25T12:28:19.070Z,984.02
2024-04-25T12:29:19.184Z,984.03